Quick Links (Output Below):   Max & Min Temps   /   Climate Reports   /   Zone Forecasts
River Forecasts   /   Forestry Forecasts   /   Aviation Forecasts   /   Radars   /   Features

Terminal Aerodrome Forecast (Mountain Home)

Pick a Site:
Arkadelphia | El Dorado | Fayetteville | Fort Smith | Harrison | Highfill | Hot Springs | Jonesboro
Little Rock | Monticello | Mountain Home | Pine Bluff | Texarkana
 Forecast 

KBPK 300540Z 3006/3106 12003KT P6SM VCSH SCT050 BKN100
      TEMPO 3009/3013 5SM BR
     FM301500 16006KT P6SM SCT040 BKN250
     FM310100 13003KT P6SM SCT250
      AMD NOT SKED=


 Latest METARs (Observations) 
How to Decode METARs
09Z KBPK 300853Z AUTO 07004KT 5SM BR BKN085 20/19 A3000 RMK AO2 LTG
         DSNT W AND NW SLP148 T02000194 56009
         
08Z KBPK 300753Z AUTO 11003KT 6SM BR BKN080 BKN100 20/19 A3000 RMK AO2
         LTG DSNT N SLP150 T02000194
         
07Z KBPK 300653Z AUTO 13004KT 6SM BR SCT065 BKN110 21/19 A3001 RMK AO2
         LTG DSNT N AND NW SLP153 T02060194
         
06Z KBPK 300553Z AUTO 00000KT 7SM FEW090 21/19 A3002 RMK AO2 SLP159
         T02060189 10244 20206 402720178 50001
         
05Z KBPK 300453Z AUTO 09003KT 8SM BKN085 21/19 A3003 RMK AO2 SLP161
         T02060189
         
04Z KBPK 300353Z AUTO 13004KT 8SM CLR 21/18 A3003 RMK AO2 SLP160
         T02110183
         
03Z KBPK 300253Z AUTO 14004KT 9SM CLR 22/18 A3002 RMK AO2 SLP159
         T02170183 53011
         
02Z KBPK 300153Z AUTO 12004KT 9SM SCT110 22/18 A3001 RMK AO2 SLP156
         T02220183
         
01Z KBPK 300053Z AUTO 12004KT 8SM CLR 23/19 A2999 RMK AO2 SLP149
         T02280194
         
00Z KBPK 292353Z AUTO 16004KT 8SM CLR 24/18 A2999 RMK AO2 SLP146
         T02440183 10272 20228 56006
         
***** Today's Observations (Above) *****


Back to Main Page
http://www.srh.noaa.gov/lzk/qfcst.php

USA.gov is the U.S. government's official web portal to all federal, state and local government web resources and services.